ADDS TAF Board (Experimental) INFO Settings
IDs: Format: Expanded Condensed

KBWI - Baltimore-Washington, MD, US

Issued at 1740 UTC 29 Jul 2015
Updated at: 1959 UTC 29 Jul 2015
Time1954Z 29/20Z 29/21Z 29/22Z 29/23Z 30/00Z 30/01Z 30/02Z 30/03Z 30/04Z 30/05Z 30/06Z 30/07Z 30/08Z
Type OBS PRVL PRVL PRVL PRVL PRVL PRVL PRVL PRVL PRVL PRVL PRVL PRVL PRVL
VIS 8 >6 >6 >6 >6 >6 >6 >6 >6 >6 >6 >6 >6 >6
CIG 42 35 35 35 35 40 40 40 40 40 40 40 40 40
Cover OVC BKN BKN BKN BKN BKN BKN BKN BKN BKN BKN BKN BKN BKN
FltCat VFR VFR VFR VFR VFR VFR VFR VFR VFR VFR VFR VFR VFR VFR
WX -- VCSH VCSH VCSH VCSH -- -- -- -- -- -- -- -- --
WDir 30 140 140 140 140 180 180 180 180 180 180 180 180 180
WSpd 6 6 6 6 6 8 8 8 8 8 8 8 8 8
WGst -- 15 15 15 15 -- -- -- -- -- -- -- -- --
R04/22
XWnd 0 -6 -6 -6 -6 -4 -4 -4 -4 -4 -4 -4 -4 -4
XGst -- -14 -14 -14 -14 -- -- -- -- -- -- -- -- --
HWnd 6 -2 -2 -2 -2 -7 -7 -7 -7 -7 -7 -7 -7 -7
HGst -- -4 -4 -4 -4 -- -- -- -- -- -- -- -- --
R10/28
XWnd 5 -4 -4 -4 -4 -8 -8 -8 -8 -8 -8 -8 -8 -8
XGst -- -11 -11 -11 -11 -- -- -- -- -- -- -- -- --
HWnd 3 4 4 4 4 1 1 1 1 1 1 1 1 1
HGst -- 10 10 10 10 -- -- -- -- -- -- -- -- --
R15/33
XWnd 5 0 0 0 0 -5 -5 -5 -5 -5 -5 -5 -5 -5
XGst -- 1 1 1 1 -- -- -- -- -- -- -- -- --
HWnd -2 6 6 6 6 6 6 6 6 6 6 6 6 6
HGst -- 15 15 15 15 -- -- -- -- -- -- -- -- --

NOTE: TEMPO conditions in [brackets]. Keep in mind TEMPO conditions might be better (lower impact) than prevailing conditions.

Raw TAF
KBWI 291740Z 2918/3024 14006G15KT P6SM VCSH BKN035
  TEMPO 2918/2920 2SM SHRA BR BKN015
  FM300000 18008KT P6SM BKN040
  FM301600 19010KT 6SM -SHRA VCTS BKN050CB
  FM302000 25006KT 6SM -SHRA VCTS BKN050CB
  FM302200 29007KT P6SM SCT070


Raw METAR
KBWI 291954Z 03006KT 8SM FEW021 BKN042CB BKN090 OVC140 27/25 A2997 RMK AO2 SLP148 CB NW MOV NE T02720250
KBWI 291854Z 10006KT 6SM HZ SCT022CB BKN065 BKN100 BKN150 BKN250 27/24 A2998
KBWI 291815Z 06005KT 4SM -RA BR FEW017 BKN039 BKN090 OVC250 27/24 A2999 RMK AO2 CB E AND NW MOV NE P0006
KBWI 291802Z 10006KT 2SM R10/5000VP6000FT RA BKN038CB BKN060 OVC090 27/23 A2999 RMK AO2 CB OHD MOV NE P0005
KBWI 291754Z 13007KT 7SM -RA SCT036CB BKN065 BKN110 BKN250 28/23 A2999 RMK AO2 RAB1659E23B41 SLP154 VIS N-NE 2 CB OHD-NE MOV NE TCU ALQDS P0000 60000 T02780233 10311 20250 56008
KBWI 291654Z 21003KT 9SM BKN034CB BKN055 BKN110 BKN250 30/22 A2999 RMK AO2 SLP155 CB S MOV E TCU ALQDS VCSH S T03000222

METAR Board
Radar Display
Forecast Discussion

TAF Board Legend

Potential Impact
Threat None Slight Moderate High
Visibility (sm) ≥5.1 5.1>X≥3 3>X≥1 <1
Ceiling (100 ft) ≥30.1 30.1>X≥10 10>X≥5 <5
Wind Speed (kt) <10 10≤X<20 20≤X<30 ≥30
Wind Gust (kt) <15 15≤X<25 25≤X<35 ≥35
Weather No Wx Reported VCTS,-TS,-FZRA,SN TS,FZRA +TS,+FZRA,+SN